createdAt,value
2022-07-31T00:00:35.509Z,47.82
2022-07-31T00:03:03.249Z,47.99
2022-07-31T00:05:31.275Z,48.19
2022-07-31T00:07:59.401Z,48.04
2022-07-31T00:10:27.113Z,47.88
2022-07-31T00:12:54.781Z,47.88
2022-07-31T00:15:22.505Z,47.94
2022-07-31T00:17:50.678Z,48.40
2022-07-31T00:20:18.557Z,48.22
2022-07-31T00:22:46.258Z,48.17
2022-07-31T00:25:14.094Z,48.54
2022-07-31T00:27:42.142Z,48.29
2022-07-31T00:30:10.084Z,48.72
2022-07-31T00:32:37.772Z,48.51
2022-07-31T00:35:06.055Z,48.74
2022-07-31T00:37:33.960Z,48.80
2022-07-31T00:40:01.739Z,48.95
2022-07-31T00:42:29.363Z,49.37
2022-07-31T00:44:57.446Z,49.33
2022-07-31T00:47:27.483Z,49.71
2022-07-31T00:49:57.472Z,49.62
2022-07-31T00:52:25.406Z,50.01
2022-07-31T00:54:53.653Z,49.75
2022-07-31T00:57:21.420Z,49.79
2022-07-31T00:59:49.182Z,49.89
2022-07-31T01:02:17.019Z,49.80
2022-07-31T01:04:45.906Z,49.97
2022-07-31T01:07:14.490Z,50.40
2022-07-31T01:09:42.766Z,50.07
2022-07-31T01:12:10.437Z,50.62
2022-07-31T01:14:38.210Z,50.43
2022-07-31T01:17:07.376Z,50.52
2022-07-31T01:19:37.961Z,50.54
2022-07-31T01:22:33.338Z,50.83
2022-07-31T01:24:58.393Z,50.90
2022-07-31T01:27:26.069Z,50.81
2022-07-31T01:29:54.955Z,51.10
2022-07-31T01:32:27.467Z,51.06
2022-07-31T01:34:55.597Z,51.34
2022-07-31T01:37:23.809Z,50.84
2022-07-31T01:39:51.625Z,51.35
2022-07-31T01:42:19.262Z,51.04
2022-07-31T01:44:46.939Z,51.51
2022-07-31T01:47:15.043Z,51.44
2022-07-31T01:49:42.741Z,51.55
2022-07-31T01:52:10.427Z,51.42
2022-07-31T01:54:38.308Z,52.05
2022-07-31T01:57:06.487Z,51.98
2022-07-31T01:59:34.187Z,51.76
2022-07-31T02:02:03.597Z,52.03
2022-07-31T02:04:33.368Z,51.99
2022-07-31T02:07:01.393Z,52.26
2022-07-31T02:09:29.021Z,52.59
2022-07-31T02:11:56.780Z,52.45
2022-07-31T02:14:24.509Z,52.78
2022-07-31T02:16:52.720Z,52.75
2022-07-31T02:19:20.372Z,52.54
2022-07-31T02:21:51.109Z,52.62
2022-07-31T02:24:18.846Z,52.78
2022-07-31T02:26:46.578Z,53.46
2022-07-31T02:29:19.352Z,53.11
2022-07-31T02:31:48.536Z,52.84
2022-07-31T02:34:30.509Z,53.04
2022-07-31T02:36:58.603Z,53.21
2022-07-31T02:39:30.311Z,53.32
2022-07-31T02:42:01.677Z,53.23
2022-07-31T02:44:29.816Z,53.75
2022-07-31T02:46:58.272Z,53.19
2022-07-31T02:49:25.990Z,53.63
2022-07-31T02:51:53.669Z,53.74
2022-07-31T02:54:21.349Z,53.05
2022-07-31T02:56:48.973Z,53.35
2022-07-31T02:59:16.716Z,53.57
2022-07-31T03:01:44.441Z,53.38
2022-07-31T03:04:12.499Z,53.75
2022-07-31T03:06:40.839Z,53.90
2022-07-31T03:09:08.471Z,53.96
2022-07-31T03:11:36.255Z,54.01
2022-07-31T03:14:03.928Z,53.91
2022-07-31T03:16:31.989Z,54.24
2022-07-31T03:18:59.904Z,54.03
2022-07-31T03:21:27.633Z,54.33
2022-07-31T03:23:55.567Z,53.92
2022-07-31T03:26:24.680Z,53.71
2022-07-31T03:28:52.432Z,53.84
2022-07-31T03:31:20.159Z,54.24
2022-07-31T03:33:47.803Z,54.17
2022-07-31T03:36:15.524Z,53.99
2022-07-31T03:38:47.573Z,54.25
2022-07-31T03:41:18.366Z,54.06
2022-07-31T03:43:47.912Z,54.13
2022-07-31T03:46:15.852Z,53.81
2022-07-31T03:48:43.553Z,53.99
2022-07-31T03:51:11.229Z,53.85
2022-07-31T03:53:39.811Z,53.57
2022-07-31T03:56:07.522Z,53.88
2022-07-31T03:58:36.738Z,53.61
2022-07-31T04:01:10.328Z,53.37
2022-07-31T04:03:39.901Z,53.93
2022-07-31T04:06:07.827Z,53.19
2022-07-31T04:08:35.777Z,53.33
2022-07-31T04:11:03.469Z,52.98
2022-07-31T04:13:31.190Z,52.84
2022-07-31T04:15:58.795Z,53.12
2022-07-31T04:18:26.949Z,52.87
2022-07-31T04:20:54.616Z,53.02
2022-07-31T04:23:22.335Z,53.10
2022-07-31T04:26:00.199Z,52.40
2022-07-31T04:28:30.179Z,52.56
2022-07-31T04:30:57.791Z,52.67
2022-07-31T04:33:25.466Z,52.20
2022-07-31T04:35:53.091Z,52.35
2022-07-31T04:38:22.119Z,52.05
2022-07-31T04:40:49.807Z,52.19
2022-07-31T04:43:18.186Z,52.32
2022-07-31T04:45:45.979Z,51.90
2022-07-31T04:48:14.201Z,52.23
2022-07-31T04:50:41.895Z,51.75
2022-07-31T04:53:09.567Z,51.47
2022-07-31T04:55:37.175Z,51.83
2022-07-31T04:58:05.196Z,51.73
2022-07-31T05:00:32.951Z,51.71
2022-07-31T05:03:00.636Z,51.41
2022-07-31T05:05:28.296Z,51.76
2022-07-31T05:07:56.951Z,51.38
2022-07-31T05:10:42.218Z,51.15
2022-07-31T05:13:09.882Z,51.44
2022-07-31T05:15:38.220Z,51.67
2022-07-31T05:18:07.825Z,51.12
2022-07-31T05:20:35.471Z,51.33
2022-07-31T05:23:03.210Z,51.15
2022-07-31T05:25:34.868Z,51.12
2022-07-31T05:28:02.481Z,50.99
2022-07-31T05:30:30.874Z,51.07
2022-07-31T05:32:58.710Z,50.55
2022-07-31T05:35:26.434Z,50.75
2022-07-31T05:37:54.482Z,50.20
2022-07-31T05:40:22.120Z,50.45
2022-07-31T05:42:49.841Z,50.42
2022-07-31T05:45:17.815Z,50.25
2022-07-31T05:47:45.971Z,49.64
2022-07-31T05:50:14.587Z,49.22
2022-07-31T05:52:42.872Z,49.40
2022-07-31T05:55:10.502Z,49.14
2022-07-31T05:57:38.658Z,48.70
2022-07-31T06:00:06.404Z,48.78
2022-07-31T06:02:34.083Z,48.92
2022-07-31T06:05:01.849Z,48.53
2022-07-31T06:07:30.551Z,48.81
2022-07-31T06:09:58.215Z,48.81
2022-07-31T06:12:25.894Z,48.68
2022-07-31T06:14:53.563Z,48.70
2022-07-31T06:17:21.507Z,48.64
2022-07-31T06:19:50.185Z,48.39
2022-07-31T06:22:17.967Z,48.77
2022-07-31T06:24:45.695Z,48.43
2022-07-31T06:27:33.484Z,48.94
2022-07-31T06:30:01.824Z,48.39
2022-07-31T06:32:29.452Z,48.91
2022-07-31T06:34:57.207Z,48.30
2022-07-31T06:37:26.636Z,48.61
2022-07-31T06:39:55.636Z,48.26
2022-07-31T06:42:24.226Z,48.33
2022-07-31T06:44:51.966Z,48.63
2022-07-31T06:47:20.067Z,48.65
2022-07-31T06:49:47.773Z,48.46
2022-07-31T06:52:16.175Z,48.21
2022-07-31T06:54:44.325Z,47.72
2022-07-31T06:57:12.695Z,47.06
2022-07-31T06:59:40.898Z,46.84
2022-07-31T07:02:08.769Z,46.46
2022-07-31T07:04:56.471Z,46.50
2022-07-31T07:07:24.334Z,46.61
2022-07-31T07:09:59.292Z,46.88
2022-07-31T07:12:27.031Z,46.83
2022-07-31T07:14:56.125Z,46.43
2022-07-31T07:17:27.238Z,46.26
2022-07-31T07:19:58.990Z,46.67
2022-07-31T07:22:31.111Z,46.78
2022-07-31T07:24:59.696Z,46.83
2022-07-31T07:27:27.723Z,46.52
2022-07-31T07:29:55.471Z,47.33
2022-07-31T07:32:23.137Z,47.14
2022-07-31T07:34:59.640Z,47.31
2022-07-31T07:37:28.584Z,47.56
2022-07-31T07:39:56.274Z,47.51
2022-07-31T07:42:24.016Z,48.05
2022-07-31T07:44:51.993Z,47.92
2022-07-31T07:47:19.600Z,47.99
2022-07-31T07:49:47.294Z,47.89
2022-07-31T07:52:15.300Z,47.27
2022-07-31T07:54:44.182Z,47.33
2022-07-31T07:57:11.805Z,47.29
2022-07-31T07:59:39.638Z,47.29
2022-07-31T08:02:07.467Z,47.92
2022-07-31T08:04:35.336Z,47.09
2022-07-31T08:07:05.123Z,47.65
2022-07-31T08:09:32.817Z,47.47
2022-07-31T08:12:00.553Z,47.02
2022-07-31T08:14:28.376Z,46.71
2022-07-31T08:16:56.349Z,46.62
2022-07-31T08:19:25.143Z,46.57
2022-07-31T08:21:52.932Z,47.10
2022-07-31T08:24:20.665Z,46.95
2022-07-31T08:27:09.894Z,47.35
2022-07-31T08:29:38.891Z,47.07
2022-07-31T08:32:10.540Z,46.71
2022-07-31T08:34:41.989Z,46.54
2022-07-31T08:37:52.338Z,45.97
2022-07-31T08:39:58.326Z,46.39
2022-07-31T08:42:25.973Z,45.86
2022-07-31T08:44:54.115Z,46.41
2022-07-31T08:47:21.845Z,46.63
2022-07-31T08:49:49.619Z,46.56
2022-07-31T08:52:17.355Z,46.25
2022-07-31T08:54:46.255Z,46.45
2022-07-31T08:57:14.002Z,46.51
2022-07-31T08:59:42.361Z,46.66
2022-07-31T09:02:10.134Z,46.50
2022-07-31T09:04:37.857Z,46.58
2022-07-31T09:07:06.208Z,47.32
2022-07-31T09:09:45.232Z,47.44
2022-07-31T09:12:20.626Z,47.60
2022-07-31T09:15:01.529Z,48.06
2022-07-31T09:17:29.828Z,47.72
2022-07-31T09:19:57.852Z,47.63
2022-07-31T09:22:25.570Z,47.87
2022-07-31T09:24:53.423Z,48.41
2022-07-31T09:27:21.156Z,48.37
2022-07-31T09:29:49.693Z,48.16
2022-07-31T09:32:17.433Z,48.69
2022-07-31T09:34:45.145Z,48.54
2022-07-31T09:37:13.398Z,48.74
2022-07-31T09:39:51.844Z,48.89
2022-07-31T09:42:20.346Z,49.18
2022-07-31T09:44:49.182Z,48.46
2022-07-31T09:47:16.920Z,48.29
2022-07-31T09:49:44.568Z,48.23
2022-07-31T09:52:12.336Z,48.31
2022-07-31T09:54:40.518Z,48.21
2022-07-31T09:57:08.255Z,48.07
2022-07-31T09:59:35.923Z,47.90
2022-07-31T10:02:03.553Z,48.37
2022-07-31T10:04:31.370Z,48.16
2022-07-31T10:06:59.399Z,47.95
2022-07-31T10:09:27.126Z,48.15
2022-07-31T10:11:54.885Z,47.66
2022-07-31T10:14:22.757Z,47.45
2022-07-31T10:16:51.815Z,48.24
2022-07-31T10:19:19.496Z,48.03
2022-07-31T10:21:47.237Z,48.35
2022-07-31T10:24:14.876Z,47.75
2022-07-31T10:27:00.273Z,47.61
2022-07-31T10:29:32.178Z,47.58
2022-07-31T10:32:00.731Z,47.94
2022-07-31T10:34:28.457Z,47.28
2022-07-31T10:36:56.588Z,47.74
2022-07-31T10:39:25.003Z,47.53
2022-07-31T10:41:52.744Z,47.65
2022-07-31T10:44:22.398Z,47.59
2022-07-31T10:46:50.457Z,47.60
2022-07-31T10:49:18.337Z,47.49
2022-07-31T10:51:46.144Z,47.38
2022-07-31T10:54:14.484Z,47.14
2022-07-31T10:56:42.637Z,46.88
2022-07-31T10:59:10.526Z,47.20
2022-07-31T11:01:39.845Z,46.90
2022-07-31T11:04:21.318Z,46.34
2022-07-31T11:06:51.770Z,46.33
2022-07-31T11:09:19.476Z,45.57
2022-07-31T11:11:47.138Z,45.71
2022-07-31T11:14:14.877Z,45.08
2022-07-31T11:16:42.920Z,45.13
2022-07-31T11:19:10.903Z,45.00
2022-07-31T11:21:39.744Z,44.43
2022-07-31T11:24:11.430Z,44.84
2022-07-31T11:26:41.331Z,44.75
2022-07-31T11:30:01.279Z,44.80
2022-07-31T11:31:57.669Z,44.59
2022-07-31T11:34:26.229Z,45.42
2022-07-31T11:36:54.412Z,45.38
2022-07-31T11:39:26.621Z,45.52
2022-07-31T11:42:04.326Z,45.63
2022-07-31T11:44:32.859Z,45.89
2022-07-31T11:47:00.608Z,45.32
2022-07-31T11:49:48.252Z,44.45
2022-07-31T11:52:31.052Z,43.61
2022-07-31T11:55:08.789Z,42.89
2022-07-31T11:57:52.521Z,42.49
2022-07-31T12:00:24.733Z,40.94
2022-07-31T12:02:57.836Z,41.03
2022-07-31T12:05:38.871Z,40.90
2022-07-31T12:08:07.544Z,40.25
2022-07-31T12:10:35.237Z,39.85
2022-07-31T12:13:02.972Z,40.01
2022-07-31T12:15:31.043Z,40.38
2022-07-31T12:17:58.805Z,40.67
2022-07-31T12:20:35.318Z,40.85
2022-07-31T12:23:03.917Z,41.65
2022-07-31T12:25:32.090Z,41.79
2022-07-31T12:27:59.775Z,42.37
2022-07-31T12:30:30.096Z,42.85
2022-07-31T12:32:57.929Z,43.41
2022-07-31T12:35:25.878Z,43.80
2022-07-31T12:38:30.194Z,43.90
2022-07-31T12:41:01.504Z,43.94
2022-07-31T12:43:29.323Z,44.29
2022-07-31T12:46:00.416Z,44.10
2022-07-31T12:48:28.278Z,44.26
2022-07-31T12:50:56.207Z,45.13
2022-07-31T12:53:23.919Z,45.01
2022-07-31T12:55:51.662Z,45.33
2022-07-31T12:58:19.290Z,46.21
2022-07-31T13:00:46.938Z,46.62
2022-07-31T13:03:14.743Z,46.85
2022-07-31T13:05:42.413Z,47.31
2022-07-31T13:08:10.487Z,47.29
2022-07-31T13:10:38.183Z,47.55
2022-07-31T13:13:06.217Z,47.37
2022-07-31T13:15:34.009Z,46.96
2022-07-31T13:18:03.453Z,47.02
2022-07-31T13:20:31.478Z,46.10
2022-07-31T13:22:59.813Z,45.77
2022-07-31T13:25:27.835Z,45.39
2022-07-31T13:27:56.150Z,44.36
2022-07-31T13:30:23.823Z,44.04
2022-07-31T13:32:51.616Z,43.84
2022-07-31T13:35:28.403Z,43.97
2022-07-31T13:37:57.256Z,43.24
2022-07-31T13:40:45.160Z,42.95
2022-07-31T13:43:14.202Z,42.92
2022-07-31T13:45:41.955Z,43.51
2022-07-31T13:48:10.385Z,44.11
2022-07-31T13:50:39.921Z,43.34
2022-07-31T13:53:08.403Z,43.73
2022-07-31T13:55:36.158Z,43.39
2022-07-31T13:58:03.945Z,43.66
2022-07-31T14:00:31.785Z,44.18
2022-07-31T14:02:59.408Z,44.95
2022-07-31T14:05:27.512Z,44.42
2022-07-31T14:07:55.864Z,44.68
2022-07-31T14:10:23.652Z,45.15
2022-07-31T14:12:51.330Z,45.93
2022-07-31T14:15:19.081Z,46.00
2022-07-31T14:17:47.230Z,45.82
2022-07-31T14:20:14.940Z,45.66
2022-07-31T14:22:42.662Z,45.21
2022-07-31T14:25:10.323Z,44.79
2022-07-31T14:27:39.565Z,45.43
2022-07-31T14:30:07.290Z,45.13
2022-07-31T14:32:35.037Z,45.37
2022-07-31T14:35:07.821Z,44.90
2022-07-31T14:37:36.613Z,45.17
2022-07-31T14:40:04.368Z,45.80
2022-07-31T14:42:32.097Z,45.36
2022-07-31T14:45:00.324Z,46.45
2022-07-31T14:47:27.973Z,46.35
2022-07-31T14:50:10.673Z,46.15
2022-07-31T14:52:39.778Z,46.42
2022-07-31T14:55:07.515Z,46.81
2022-07-31T14:57:36.614Z,46.19
2022-07-31T15:00:09.831Z,46.60
2022-07-31T15:02:39.548Z,46.52
2022-07-31T15:06:37.702Z,46.58
2022-07-31T15:07:55.147Z,47.27
2022-07-31T15:10:22.924Z,46.37
2022-07-31T15:12:51.950Z,45.15
2022-07-31T15:15:20.193Z,43.60
2022-07-31T15:17:47.866Z,42.80
2022-07-31T15:20:16.331Z,42.41
2022-07-31T15:22:44.041Z,43.70
2022-07-31T15:25:11.805Z,44.88
2022-07-31T15:27:39.582Z,45.77
2022-07-31T15:30:08.007Z,46.55
2022-07-31T15:32:35.903Z,46.25
2022-07-31T15:35:03.595Z,46.31
2022-07-31T15:37:31.756Z,46.24
2022-07-31T15:40:02.792Z,44.89
2022-07-31T15:42:31.252Z,44.14
2022-07-31T15:44:59.102Z,44.09
2022-07-31T15:47:27.153Z,42.14
2022-07-31T15:49:54.870Z,40.92
2022-07-31T15:52:22.571Z,40.35
2022-07-31T15:54:51.832Z,39.83
2022-07-31T15:57:20.219Z,39.02
2022-07-31T15:59:48.100Z,39.32
2022-07-31T16:02:15.873Z,40.28
2022-07-31T16:04:51.534Z,41.77
2022-07-31T16:08:32.918Z,43.50
2022-07-31T16:10:16.182Z,44.94
2022-07-31T16:12:45.055Z,45.81
2022-07-31T16:15:12.915Z,46.13
2022-07-31T16:17:40.853Z,46.93
2022-07-31T16:20:08.963Z,47.29
2022-07-31T16:22:36.805Z,47.44
2022-07-31T16:25:05.892Z,47.39
2022-07-31T16:27:33.651Z,48.04
2022-07-31T16:30:02.854Z,50.27
2022-07-31T16:32:30.942Z,52.17
2022-07-31T16:35:01.349Z,53.42
2022-07-31T16:37:50.069Z,53.32
2022-07-31T16:40:28.404Z,52.77
2022-07-31T16:43:01.046Z,52.91
2022-07-31T16:45:28.908Z,53.25
2022-07-31T16:47:56.827Z,53.21
2022-07-31T16:50:24.575Z,54.09
2022-07-31T16:52:54.787Z,53.97
2022-07-31T16:55:55.713Z,54.63
2022-07-31T16:58:11.838Z,54.32
2022-07-31T17:00:39.839Z,54.45
2022-07-31T17:03:58.748Z,54.76
2022-07-31T17:05:55.885Z,54.01
2022-07-31T17:08:23.640Z,54.41
2022-07-31T17:10:54.589Z,54.18
2022-07-31T17:13:22.549Z,54.24
2022-07-31T17:15:50.737Z,54.49
2022-07-31T17:18:18.589Z,54.28
2022-07-31T17:20:47.271Z,54.92
2022-07-31T17:23:15.801Z,54.79
2022-07-31T17:25:44.016Z,54.76
2022-07-31T17:28:15.332Z,54.45
2022-07-31T17:30:45.098Z,55.02
2022-07-31T17:33:12.878Z,55.54
2022-07-31T17:35:40.607Z,55.21
2022-07-31T17:38:08.641Z,55.58
2022-07-31T17:40:44.334Z,55.79
2022-07-31T17:43:13.200Z,55.75
2022-07-31T17:45:59.551Z,55.95
2022-07-31T17:48:29.243Z,55.89
2022-07-31T17:50:57.051Z,56.52
2022-07-31T17:53:54.765Z,56.50
2022-07-31T17:56:13.217Z,56.95
2022-07-31T17:58:41.060Z,57.00
2022-07-31T18:01:08.998Z,56.90
2022-07-31T18:03:36.749Z,57.38
2022-07-31T18:06:05.283Z,57.66
2022-07-31T18:08:33.521Z,58.22
2022-07-31T18:11:01.307Z,59.10
2022-07-31T18:13:29.258Z,61.05
2022-07-31T18:15:57.034Z,61.89
2022-07-31T18:18:26.087Z,62.35
2022-07-31T18:20:53.844Z,62.69
2022-07-31T18:23:23.171Z,63.51
2022-07-31T18:25:51.683Z,63.81
2022-07-31T18:28:19.771Z,63.61
2022-07-31T18:30:47.565Z,63.52
2022-07-31T18:33:17.484Z,64.07
2022-07-31T18:35:45.189Z,64.07
2022-07-31T18:38:13.464Z,63.91
2022-07-31T18:40:41.479Z,63.41
2022-07-31T18:43:09.333Z,63.98
2022-07-31T18:45:39.519Z,64.00
2022-07-31T18:48:09.539Z,64.06
2022-07-31T18:50:58.462Z,64.02
2022-07-31T18:53:25.131Z,64.28
2022-07-31T18:55:53.069Z,64.74
2022-07-31T18:58:20.894Z,64.94
2022-07-31T19:00:52.914Z,65.69
2022-07-31T19:03:22.367Z,66.15
2022-07-31T19:05:51.023Z,66.30
2022-07-31T19:08:19.924Z,66.17
2022-07-31T19:10:49.800Z,66.25
2022-07-31T19:13:19.401Z,66.22
2022-07-31T19:15:47.454Z,66.08
2022-07-31T19:18:15.660Z,66.33
2022-07-31T19:21:00.283Z,66.32
2022-07-31T19:23:33.021Z,66.54
2022-07-31T19:26:03.593Z,66.11
2022-07-31T19:28:32.412Z,65.42
2022-07-31T19:31:00.064Z,66.12
2022-07-31T19:33:27.816Z,65.85
2022-07-31T19:36:01.510Z,65.20
2022-07-31T19:38:30.612Z,66.09
2022-07-31T19:40:58.320Z,65.59
2022-07-31T19:43:26.046Z,65.53
2022-07-31T19:45:58.834Z,65.20
2022-07-31T19:48:39.809Z,65.62
2022-07-31T19:51:07.656Z,65.28
2022-07-31T19:53:35.788Z,65.42
2022-07-31T19:56:05.912Z,65.86
2022-07-31T19:58:34.501Z,65.85
2022-07-31T20:01:02.468Z,65.62
2022-07-31T20:03:30.420Z,65.98
2022-07-31T20:05:58.401Z,66.02
2022-07-31T20:08:26.459Z,65.70
2022-07-31T20:10:59.568Z,65.37
2022-07-31T20:13:28.174Z,65.60
2022-07-31T20:15:55.867Z,65.70
2022-07-31T20:18:28.595Z,65.64
2022-07-31T20:20:57.275Z,66.14
2022-07-31T20:23:25.116Z,65.45
2022-07-31T20:25:52.854Z,65.90
2022-07-31T20:28:20.760Z,65.53
2022-07-31T20:30:48.583Z,65.86
2022-07-31T20:33:16.265Z,65.59
2022-07-31T20:35:48.753Z,65.19
2022-07-31T20:38:17.295Z,65.62
2022-07-31T20:40:51.159Z,65.20
2022-07-31T20:43:22.624Z,65.55
2022-07-31T20:45:50.644Z,65.19
2022-07-31T20:48:19.078Z,65.59
2022-07-31T20:50:47.781Z,65.66
2022-07-31T20:53:15.758Z,65.59
2022-07-31T20:55:47.124Z,65.51
2022-07-31T20:58:14.908Z,65.37
2022-07-31T21:00:42.584Z,65.52
2022-07-31T21:03:10.425Z,65.60
2022-07-31T21:05:38.572Z,65.40
2022-07-31T21:08:06.549Z,66.45
2022-07-31T21:10:34.461Z,66.09
2022-07-31T21:13:02.123Z,65.96
2022-07-31T21:15:44.235Z,66.19
2022-07-31T21:18:14.242Z,66.10
2022-07-31T21:20:50.837Z,66.34
2022-07-31T21:23:20.923Z,65.92
2022-07-31T21:25:49.127Z,66.46
2022-07-31T21:28:16.887Z,65.98
2022-07-31T21:30:44.594Z,66.25
2022-07-31T21:33:12.306Z,65.96
2022-07-31T21:35:40.821Z,66.18
2022-07-31T21:38:12.222Z,66.58
2022-07-31T21:40:40.345Z,66.02
2022-07-31T21:43:08.197Z,66.19
2022-07-31T21:45:45.703Z,66.30
2022-07-31T21:48:22.746Z,66.31
2022-07-31T21:50:50.452Z,66.21
2022-07-31T21:53:18.576Z,66.26
2022-07-31T21:55:46.366Z,66.20
2022-07-31T21:58:13.996Z,66.38
2022-07-31T22:00:41.760Z,67.13
2022-07-31T22:03:09.619Z,67.57
2022-07-31T22:05:54.631Z,67.30
2022-07-31T22:08:22.888Z,67.74
2022-07-31T22:10:50.582Z,67.67
2022-07-31T22:13:18.269Z,67.72
2022-07-31T22:15:58.905Z,68.26
2022-07-31T22:18:28.998Z,68.02
2022-07-31T22:20:56.825Z,68.12
2022-07-31T22:23:24.445Z,68.03
2022-07-31T22:25:52.504Z,68.27
2022-07-31T22:28:20.227Z,68.43
2022-07-31T22:30:47.879Z,68.82
2022-07-31T22:33:15.611Z,68.87
2022-07-31T22:35:43.333Z,68.61
2022-07-31T22:38:12.520Z,69.00
2022-07-31T22:40:40.285Z,68.45
2022-07-31T22:44:10.588Z,68.61
2022-07-31T22:45:59.589Z,69.09
2022-07-31T22:48:28.012Z,69.07
2022-07-31T22:50:56.178Z,68.58
2022-07-31T22:53:24.157Z,68.93
2022-07-31T22:55:53.177Z,68.86
2022-07-31T22:58:20.902Z,68.38
2022-07-31T23:00:48.641Z,68.32
2022-07-31T23:03:17.376Z,68.86
2022-07-31T23:06:27.985Z,68.31
2022-07-31T23:08:32.809Z,68.72
2022-07-31T23:11:00.487Z,68.83
2022-07-31T23:13:28.340Z,68.31
2022-07-31T23:15:56.261Z,68.73
2022-07-31T23:18:24.040Z,69.12
2022-07-31T23:20:51.845Z,68.81
2022-07-31T23:23:19.918Z,68.73
2022-07-31T23:25:47.749Z,69.10
2022-07-31T23:28:15.426Z,69.25
2022-07-31T23:30:43.117Z,69.44
2022-07-31T23:33:12.490Z,68.82
2022-07-31T23:35:40.282Z,69.18
2022-07-31T23:38:09.311Z,69.00
2022-07-31T23:40:37.044Z,68.95
2022-07-31T23:43:03.727Z,69.37
2022-07-31T23:45:31.398Z,69.06
2022-07-31T23:48:00.013Z,69.39
2022-07-31T23:50:28.346Z,69.11
2022-07-31T23:52:56.057Z,69.38
2022-07-31T23:55:23.697Z,68.98
2022-07-31T23:57:52.287Z,69.17
